CYPX

Puvirnituq Airport

Puvirnituq, Quebec, Canada
METAR CYPX 182200Z AUTO 30015G20KT 9SM CLR 04/01 A2958 RMK SLP020
Observed Flight Rules
Jun-18 @ 22:00 UTC (36 minutes ago) Visual Flight Rules
Wind Visibility Clouds
300° at 15 knots
 Gusting to 20 knots
9 miles
  • Clear skies
Temperatures Readings
Current 4°C / 39°F
Dewpoint 1°C / 34°F
Humidity 81%
Altimeter 29.58" Hg
Pressure 1002 hPa
Elevation 23
METAR CYPX 182200Z AUTO 30015G20KT 9SM CLR 04/01 A2958 RMK SLP020
Observed Flight Rules
Jun-18 @ 22:00 UTC
(36 minutes ago)
VFR
Wind Visibility
300° at 15 knots
 Gusting to 20 knots
9 miles
Clouds
  • Clear skies
Temperature Dewpoint
4°C / 39°F 1°C / 34°F
Humidity Altimeter Pressure
81% 29.58" Hg 1002 hPa